Time;durP1;ratioP1;P1;durP2;ratioP2;P2;SDS_P1;SDS_P2;PMS_P1;PMS_P2;Temp;Humidity;BMP_temperature;BMP_pressure;BME280_temperature;BME280_humidity;BME280_pressure;Samples;Min_cycle;Max_cycle;Signal;HPM_P1;HPM_P2
2024/02/14 00:02:25;;;;;;;1999.90;999.90;;;15.00;99.90;;;;;;5075578;28;20114;-84
2024/02/14 00:04:53;;;;;;;1999.90;999.90;;;15.00;99.90;;;;;;5080042;28;20131;-80
2024/02/14 00:07:19;;;;;;;1999.90;999.90;;;15.00;99.90;;;;;;5096153;28;20031;-80
2024/02/14 00:09:45;;;;;;;1999.90;999.90;;;14.90;99.90;;;;;;5114906;28;20023;-80
2024/02/14 00:12:11;;;;;;;1999.90;999.90;;;14.90;99.90;;;;;;5114354;28;20497;-80
2024/02/14 00:14:37;;;;;;;1999.90;999.90;;;15.00;99.90;;;;;;5095902;28;20016;-80
2024/02/14 00:17:04;;;;;;;1999.90;999.90;;;15.00;99.90;;;;;;5114424;28;20034;-80
2024/02/14 00:19:31;;;;;;;1999.90;999.90;;;15.00;99.90;;;;;;5096039;28;20168;-80
2024/02/14 00:21:57;;;;;;;1999.90;999.90;;;15.00;99.90;;;;;;5095924;28;20211;-81
2024/02/14 00:24:23;;;;;;;1999.90;999.90;;;15.10;99.90;;;;;;5112274;28;20084;-80
2024/02/14 00:26:50;;;;;;;1999.90;999.90;;;15.10;99.90;;;;;;5095845;28;20024;-80
2024/02/14 00:29:16;;;;;;;1999.90;999.90;;;15.00;99.90;;;;;;5114676;28;20073;-80
2024/02/14 00:31:44;;;;;;;1999.90;999.90;;;15.00;99.90;;;;;;5114053;28;20031;-80
2024/02/14 00:34:10;;;;;;;1999.90;999.90;;;15.10;99.90;;;;;;5095700;28;20020;-80
2024/02/14 00:36:35;;;;;;;1999.90;999.90;;;15.10;99.90;;;;;;5095628;28;20069;-84
2024/02/14 00:39:02;;;;;;;1999.90;999.90;;;15.10;99.90;;;;;;5095845;28;20082;-80
2024/02/14 00:41:29;;;;;;;1999.90;999.90;;;15.20;99.90;;;;;;5095563;28;20033;-84
2024/02/14 00:43:56;;;;;;;1999.90;999.90;;;15.20;99.90;;;;;;5095595;28;20024;-80
2024/02/14 00:46:22;;;;;;;1999.90;999.90;;;15.30;99.90;;;;;;5095440;28;20034;-84
2024/02/14 00:48:47;;;;;;;1999.90;999.90;;;15.40;99.90;;;;;;5094688;28;20023;-80
2024/02/14 00:51:13;;;;;;;1999.90;999.90;;;15.50;99.90;;;;;;5095148;28;20019;-84
2024/02/14 00:53:39;;;;;;;1999.90;999.90;;;15.50;99.90;;;;;;5095769;28;20393;-80
2024/02/14 00:56:05;;;;;;;1999.90;999.90;;;15.60;99.90;;;;;;5113732;28;20019;-80
2024/02/14 00:58:31;;;;;;;1999.90;999.90;;;15.60;99.90;;;;;;5094892;28;20028;-80
2024/02/14 01:00:57;;;;;;;1999.90;999.90;;;15.60;99.90;;;;;;5095312;28;20200;-80
2024/02/14 01:03:23;;;;;;;1999.90;999.90;;;15.60;99.90;;;;;;5131018;28;20050;-82
2024/02/14 01:05:49;;;;;;;1999.90;999.90;;;15.60;99.90;;;;;;5099568;28;20047;-81
2024/02/14 01:08:14;;;;;;;1999.90;999.90;;;15.60;99.90;;;;;;5095298;28;20031;-79
2024/02/14 01:10:40;;;;;;;1999.90;999.90;;;15.60;99.90;;;;;;5113506;28;20107;-80
2024/02/14 01:13:06;;;;;;;1999.90;999.90;;;15.60;99.90;;;;;;5095311;28;20063;-80
2024/02/14 01:15:33;;;;;;;1999.90;999.90;;;15.60;99.90;;;;;;5113633;28;20473;-84
2024/02/14 01:17:59;;;;;;;1999.90;999.90;;;15.50;99.90;;;;;;5113417;28;20410;-81
2024/02/14 01:20:24;;;;;;;1999.90;999.90;;;15.50;99.90;;;;;;5095166;28;20019;-80
2024/02/14 01:22:50;;;;;;;1999.90;999.90;;;15.50;99.90;;;;;;5113468;28;20066;-84
2024/02/14 01:25:16;;;;;;;1999.90;999.90;;;15.50;99.90;;;;;;5113509;28;20107;-80
2024/02/14 01:27:42;;;;;;;1999.90;999.90;;;15.40;99.90;;;;;;5095328;28;20402;-84
2024/02/14 01:30:09;;;;;;;1999.90;999.90;;;15.40;99.90;;;;;;5094885;28;20441;-80
2024/02/14 01:32:35;;;;;;;1999.90;999.90;;;15.40;99.90;;;;;;5094962;28;20023;-80
2024/02/14 01:35:00;;;;;;;1999.90;999.90;;;15.40;99.90;;;;;;5117100;28;20414;-84
2024/02/14 01:37:26;;;;;;;1999.90;999.90;;;15.40;99.90;;;;;;5117461;28;20028;-84
2024/02/14 01:39:52;;;;;;;1999.90;999.90;;;15.40;99.90;;;;;;5099259;28;20020;-79
2024/02/14 01:42:18;;;;;;;1999.90;999.90;;;15.50;99.90;;;;;;5106660;28;20016;-83
2024/02/14 01:44:44;;;;;;;1999.90;999.90;;;15.50;99.90;;;;;;5126085;28;20008;-80
2024/02/14 01:47:10;;;;;;;1999.90;999.90;;;15.50;99.90;;;;;;5116195;28;20402;-79
2024/02/14 01:49:36;;;;;;;1999.90;999.90;;;15.50;99.90;;;;;;5117434;28;20160;-79
2024/02/14 01:52:03;;;;;;;1999.90;999.90;;;15.50;99.90;;;;;;5098510;28;20031;-83
2024/02/14 01:54:30;;;;;;;1999.90;999.90;;;15.60;99.90;;;;;;5099124;28;20066;-80
2024/02/14 01:56:57;;;;;;;1999.90;999.90;;;15.70;99.90;;;;;;5098839;28;20490;-80
2024/02/14 01:59:24;;;;;;;1999.90;999.90;;;15.70;99.90;;;;;;5117059;28;20024;-80
2024/02/14 02:01:51;;;;;;;1999.90;999.90;;;15.60;99.90;;;;;;5098455;28;20033;-80
2024/02/14 02:04:18;;;;;;;1999.90;999.90;;;15.50;99.90;;;;;;5098405;28;20046;-84
2024/02/14 02:06:44;;;;;;;1999.90;999.90;;;15.60;99.90;;;;;;5098771;28;20387;-80
2024/02/14 02:09:10;;;;;;;1999.90;999.90;;;15.60;99.90;;;;;;5117169;28;20024;-80
2024/02/14 02:11:55;;;;;;;1999.90;999.90;;;15.60;99.90;;;;;;5098461;28;20572;-80
2024/02/14 02:14:21;;;;;;;1999.90;999.90;;;15.70;99.90;;;;;;5116811;28;20019;-80
2024/02/14 02:16:48;;;;;;;1999.90;999.90;;;15.50;99.90;;;;;;5111262;28;20036;-80
2024/02/14 02:19:15;;;;;;;1999.90;999.90;;;15.40;99.90;;;;;;5098181;28;20024;-80
2024/02/14 02:21:46;;;;;;;1999.90;999.90;;;15.40;99.90;;;;;;5116596;28;20453;-80
2024/02/14 02:24:12;;;;;;;1999.90;999.90;;;15.40;99.90;;;;;;5098429;28;20034;-79
2024/02/14 02:26:37;;;;;;;1999.90;999.90;;;15.50;99.90;;;;;;5098223;28;20441;-79
2024/02/14 02:29:05;;;;;;;1999.90;999.90;;;15.50;99.90;;;;;;5098258;28;20027;-80
2024/02/14 02:31:30;;;;;;;1999.90;999.90;;;15.40;99.90;;;;;;5116345;28;20031;-80
2024/02/14 02:33:56;;;;;;;1999.90;999.90;;;15.30;99.90;;;;;;5116501;28;20023;-80
2024/02/14 02:36:24;;;;;;;1999.90;999.90;;;15.30;99.90;;;;;;5098096;28;20043;-80
2024/02/14 02:38:50;;;;;;;1999.90;999.90;;;15.50;99.90;;;;;;5097917;28;20031;-80
2024/02/14 02:41:16;;;;;;;1999.90;999.90;;;15.60;99.90;;;;;;5097940;28;20020;-83
2024/02/14 02:43:42;;;;;;;1999.90;999.90;;;15.60;99.90;;;;;;5097828;28;20031;-79
2024/02/14 02:46:09;;;;;;;1999.90;999.90;;;15.60;99.90;;;;;;5124637;28;20051;-80
2024/02/14 02:48:36;;;;;;;1999.90;999.90;;;15.50;99.90;;;;;;5097680;28;20031;-80
2024/02/14 02:51:01;;;;;;;1999.90;999.90;;;15.50;99.90;;;;;;5116738;28;20034;-79
2024/02/14 02:53:27;;;;;;;1999.90;999.90;;;15.60;99.90;;;;;;5116201;28;20028;-80
2024/02/14 02:55:54;;;;;;;1999.90;999.90;;;15.70;99.90;;;;;;5116273;28;20020;-84
2024/02/14 02:58:21;;;;;;;1999.90;999.90;;;15.60;99.90;;;;;;5115997;28;20473;-80
2024/02/14 03:00:49;;;;;;;1999.90;999.90;;;15.70;99.90;;;;;;5115674;28;20069;-80
2024/02/14 03:03:15;;;;;;;1999.90;999.90;;;15.70;99.90;;;;;;5097468;28;20424;-80
2024/02/14 03:05:44;;;;;;;1999.90;999.90;;;15.70;99.90;;;;;;5097036;28;20047;-80
2024/02/14 03:08:15;;;;;;;1999.90;999.90;;;15.80;99.90;;;;;;5097446;28;20032;-84
2024/02/14 03:10:42;;;;;;;1999.90;999.90;;;16.00;99.90;;;;;;5097169;28;20027;-79
2024/02/14 03:13:11;;;;;;;1999.90;999.90;;;16.00;99.90;;;;;;5097252;28;20027;-84
2024/02/14 03:15:37;;;;;;;1999.90;999.90;;;16.20;99.90;;;;;;5097308;28;20053;-79
2024/02/14 03:18:07;;;;;;;1999.90;999.90;;;16.20;99.90;;;;;;5096333;28;20024;-80
2024/02/14 03:20:33;;;;;;;1999.90;999.90;;;16.20;99.90;;;;;;5115522;28;20026;-80
2024/02/14 03:22:59;;;;;;;1999.90;999.90;;;16.20;99.90;;;;;;5097158;28;20027;-84
2024/02/14 03:25:26;;;;;;;1999.90;999.90;;;16.40;99.90;;;;;;5122662;28;20012;-83
2024/02/14 03:27:53;;;;;;;1999.90;999.90;;;16.40;99.90;;;;;;5120825;28;20023;-80
2024/02/14 03:30:20;;;;;;;1999.90;999.90;;;16.40;99.90;;;;;;5096910;28;20056;-80
2024/02/14 03:32:49;;;;;;;1999.90;999.90;;;16.40;99.90;;;;;;5096856;28;20049;-79
2024/02/14 03:35:16;;;;;;;1999.90;999.90;;;16.50;99.90;;;;;;5096982;28;20016;-80
2024/02/14 03:37:43;;;;;;;1999.90;999.90;;;16.40;99.90;;;;;;5115144;28;20494;-80
2024/02/14 03:40:09;;;;;;;1999.90;999.90;;;16.50;99.90;;;;;;5096917;28;20031;-84
2024/02/14 03:42:35;;;;;;;1999.90;999.90;;;16.60;99.90;;;;;;5115027;28;20390;-84
2024/02/14 03:45:05;;;;;;;1999.90;999.90;;;16.60;99.90;;;;;;5115046;28;20024;-79
2024/02/14 03:47:34;;;;;;;1999.90;999.90;;;16.60;99.90;;;;;;5113700;28;20019;-80
2024/02/14 03:50:02;;;;;;;1999.90;999.90;;;16.60;99.90;;;;;;5094542;28;20429;-84
2024/02/14 03:52:28;;;;;;;1999.90;999.90;;;16.70;99.90;;;;;;5094420;28;20028;-79
2024/02/14 03:54:53;;;;;;;1999.90;999.90;;;16.70;99.90;;;;;;5094406;28;20024;-80
2024/02/14 03:57:19;;;;;;;1999.90;999.90;;;16.90;99.90;;;;;;5075378;28;20073;-80
2024/02/14 03:59:46;;;;;;;1999.90;999.90;;;16.90;99.90;;;;;;5076115;28;20372;-79
2024/02/14 04:02:11;;;;;;;1999.90;999.90;;;16.90;99.90;;;;;;5067466;28;20117;-80
2024/02/14 04:04:38;;;;;;;1999.90;999.90;;;16.80;99.90;;;;;;5077922;28;20036;-80
2024/02/14 04:07:04;;;;;;;1999.90;999.90;;;16.80;99.90;;;;;;5075997;28;20410;-84
2024/02/14 04:09:29;;;;;;;1999.90;999.90;;;16.80;99.90;;;;;;5094047;28;20024;-80
2024/02/14 04:11:55;;;;;;;1999.90;999.90;;;16.80;99.90;;;;;;5075804;28;20123;-79
2024/02/14 04:14:21;;;;;;;1999.90;999.90;;;16.80;99.90;;;;;;5093611;28;20028;-84
2024/02/14 04:16:46;;;;;;;1999.90;999.90;;;16.80;99.90;;;;;;5093911;28;20497;-79
2024/02/14 04:19:12;;;;;;;1999.90;999.90;;;16.80;99.90;;;;;;5075780;28;20020;-84
2024/02/14 04:21:38;;;;;;;1999.90;999.90;;;16.80;99.90;;;;;;5094059;28;20035;-79
2024/02/14 04:24:04;;;;;;;1999.90;999.90;;;16.80;99.90;;;;;;5075992;28;20016;-80
2024/02/14 04:26:30;;;;;;;1999.90;999.90;;;16.80;99.90;;;;;;5075599;28;20406;-80
2024/02/14 04:28:55;;;;;;;1999.90;999.90;;;16.80;99.90;;;;;;5075629;28;20027;-84
2024/02/14 04:31:21;;;;;;;1999.90;999.90;;;16.70;99.90;;;;;;5075248;28;20038;-79
2024/02/14 04:33:51;;;;;;;1999.90;999.90;;;16.70;99.90;;;;;;5079391;28;20024;-79
2024/02/14 04:36:19;;;;;;;1999.90;999.90;;;16.50;99.90;;;;;;5055827;28;20056;-83
2024/02/14 04:38:45;;;;;;;1999.90;999.90;;;16.30;99.90;;;;;;5055627;28;20062;-83
2024/02/14 04:41:10;;;;;;;1999.90;999.90;;;16.30;99.90;;;;;;5073203;28;20411;-80
2024/02/14 04:43:36;;;;;;;1999.90;999.90;;;16.30;99.90;;;;;;5091885;28;20019;-82
2024/02/14 04:46:01;;;;;;;1999.90;999.90;;;16.30;99.90;;;;;;5091165;28;20479;-79
2024/02/14 04:48:27;;;;;;;1999.90;999.90;;;16.20;99.90;;;;;;5055137;28;20055;-84
2024/02/14 04:50:53;;;;;;;1999.90;999.90;;;16.10;99.90;;;;;;5073247;28;20029;-79
2024/02/14 04:53:19;;;;;;;1999.90;999.90;;;16.20;99.90;;;;;;5073565;28;20099;-83
2024/02/14 04:55:48;;;;;;;1999.90;999.90;;;16.40;99.90;;;;;;5073372;28;20103;-79
2024/02/14 04:58:14;;;;;;;1999.90;999.90;;;16.50;99.90;;;;;;5055369;28;20430;-79
2024/02/14 05:00:39;;;;;;;1999.90;999.90;;;16.60;99.90;;;;;;5073480;28;20032;-79
2024/02/14 05:03:05;;;;;;;1999.90;999.90;;;16.60;99.90;;;;;;5086305;28;20024;-80
2024/02/14 05:05:33;;;;;;;1999.90;999.90;;;16.60;99.90;;;;;;5095067;28;20529;-80
2024/02/14 05:07:59;;;;;;;1999.90;999.90;;;16.60;99.90;;;;;;5095158;28;20051;-79
2024/02/14 05:10:24;;;;;;;1999.90;999.90;;;16.50;99.90;;;;;;5113618;28;20019;-79
2024/02/14 05:12:50;;;;;;;1999.90;999.90;;;16.50;99.90;;;;;;5113745;28;20473;-79
2024/02/14 05:15:16;;;;;;;1999.90;999.90;;;16.60;99.90;;;;;;5095247;28;20066;-79
2024/02/14 05:17:45;;;;;;;1999.90;999.90;;;16.60;99.90;;;;;;5095104;28;20019;-79
2024/02/14 05:20:11;;;;;;;1999.90;999.90;;;16.50;99.90;;;;;;5121512;28;20023;-83
2024/02/14 05:22:37;;;;;;;1999.90;999.90;;;16.30;99.90;;;;;;5113506;28;20023;-80
2024/02/14 05:25:04;;;;;;;1999.90;999.90;;;16.40;99.90;;;;;;5092875;28;20055;-83
2024/02/14 05:27:30;;;;;;;1999.90;999.90;;;16.30;99.90;;;;;;5093012;28;20050;-79
2024/02/14 05:29:56;;;;;;;1999.90;999.90;;;16.20;99.90;;;;;;5073969;28;20466;-79
2024/02/14 05:32:23;;;;;;;1999.90;999.90;;;16.20;99.90;;;;;;5074756;28;20032;-79
2024/02/14 05:34:49;;;;;;;1999.90;999.90;;;16.20;99.90;;;;;;5092836;28;20387;-79
2024/02/14 05:37:14;;;;;;;1999.90;999.90;;;16.20;99.90;;;;;;5074934;28;20023;-79
2024/02/14 05:39:41;;;;;;;1999.90;999.90;;;16.10;99.90;;;;;;5074702;28;20024;-79
2024/02/14 05:42:07;;;;;;;1999.90;999.90;;;16.00;99.90;;;;;;5074820;28;20086;-79
2024/02/14 05:44:32;;;;;;;1999.90;999.90;;;16.10;99.90;;;;;;5093143;28;20445;-84
2024/02/14 05:46:58;;;;;;;1999.90;999.90;;;16.30;99.90;;;;;;5092684;28;20024;-79
2024/02/14 05:49:24;;;;;;;1999.90;999.90;;;16.30;99.90;;;;;;5072602;28;20036;-79
2024/02/14 05:51:52;;;;;;;1999.90;999.90;;;16.40;99.90;;;;;;5054709;28;20373;-84
2024/02/14 05:54:18;;;;;;;1999.90;999.90;;;16.40;99.90;;;;;;5078275;28;20503;-80
2024/02/14 05:56:44;;;;;;;1999.90;999.90;;;16.40;99.90;;;;;;5072742;28;20023;-84
2024/02/14 05:59:10;;;;;;;1999.90;999.90;;;16.40;99.90;;;;;;5054561;28;20032;-83
2024/02/14 06:01:36;;;;;;;1999.90;999.90;;;16.30;99.90;;;;;;5058892;28;20021;-79
2024/02/14 06:04:01;;;;;;;1999.90;999.90;;;16.20;99.90;;;;;;5072577;28;20036;-83
2024/02/14 06:06:27;;;;;;;1999.90;999.90;;;16.10;99.90;;;;;;5072028;28;20054;-79
2024/02/14 06:08:53;;;;;;;1999.90;999.90;;;16.00;99.90;;;;;;5074790;28;20403;-79
2024/02/14 06:11:21;;;;;;;1999.90;999.90;;;15.80;99.90;;;;;;5092768;28;20124;-79
2024/02/14 06:13:48;;;;;;;1999.90;999.90;;;15.70;99.90;;;;;;5074320;28;20082;-81
2024/02/14 06:16:13;;;;;;;1999.90;999.90;;;15.50;99.90;;;;;;5074310;28;20403;-79
2024/02/14 06:18:40;;;;;;;1999.90;999.90;;;15.40;99.90;;;;;;5094029;28;20007;-79
2024/02/14 06:21:06;;;;;;;1999.90;999.90;;;15.30;99.90;;;;;;5113086;28;20028;-79
2024/02/14 06:23:31;;;;;;;1999.90;999.90;;;15.30;99.90;;;;;;5126230;27;20480;-79
2024/02/14 06:25:58;;;;;;;1999.90;999.90;;;15.20;99.90;;;;;;5137001;27;20027;-79
2024/02/14 06:28:24;;;;;;;1999.90;999.90;;;15.10;99.90;;;;;;5137054;27;20068;-84
2024/02/14 06:30:50;;;;;;;1999.90;999.90;;;15.00;99.90;;;;;;5118008;27;20051;-83
2024/02/14 06:33:15;;;;;;;1999.90;999.90;;;14.90;99.90;;;;;;5101358;28;20668;-79
2024/02/14 06:35:41;;;;;;;1999.90;999.90;;;14.90;99.90;;;;;;5086050;28;20031;-84
2024/02/14 06:38:07;;;;;;;1999.90;999.90;;;14.80;99.90;;;;;;5087269;28;20027;-80
2024/02/14 06:40:33;;;;;;;1999.90;999.90;;;14.80;99.90;;;;;;5116295;28;20459;-84
2024/02/14 06:42:59;;;;;;;1999.90;999.90;;;14.80;99.90;;;;;;5116390;28;20073;-79
2024/02/14 06:45:27;;;;;;;1999.90;999.90;;;14.80;99.90;;;;;;5097779;28;20027;-79
2024/02/14 06:47:54;;;;;;;1999.90;999.90;;;14.80;99.90;;;;;;5097820;28;20028;-79
2024/02/14 06:50:19;;;;;;;1999.90;999.90;;;14.80;99.90;;;;;;5097347;28;20077;-79
2024/02/14 06:52:45;;;;;;;1999.90;999.90;;;14.70;99.90;;;;;;5096391;28;20016;-79
2024/02/14 06:55:11;;;;;;;1999.90;999.90;;;14.70;99.90;;;;;;5097035;28;20031;-79
2024/02/14 06:57:37;;;;;;;1999.90;999.90;;;14.70;99.90;;;;;;5115571;28;20053;-79
2024/02/14 07:00:05;;;;;;;1999.90;999.90;;;14.60;99.90;;;;;;5096582;28;20045;-84
2024/02/14 07:02:31;;;;;;;1999.90;999.90;;;14.70;99.90;;;;;;5113300;28;20076;-80
2024/02/14 07:04:57;;;;;;;1999.90;999.90;;;14.60;99.90;;;;;;5096714;28;20116;-85
2024/02/14 07:07:22;;;;;;;1999.90;999.90;;;14.60;99.90;;;;;;5115813;28;20027;-85
2024/02/14 07:09:48;;;;;;;1999.90;999.90;;;14.60;99.90;;;;;;5096694;28;20119;-79
2024/02/14 07:12:14;;;;;;;1999.90;999.90;;;14.60;99.90;;;;;;5107992;28;20810;-79
2024/02/14 07:14:40;;;;;;;1999.90;999.90;;;14.60;99.90;;;;;;5092678;28;20371;-84
2024/02/14 07:17:06;;;;;;;1999.90;999.90;;;14.60;99.90;;;;;;5096636;28;20027;-83
2024/02/14 07:19:31;;;;;;;1999.90;999.90;;;14.60;99.90;;;;;;5097057;28;20024;-79
2024/02/14 07:21:57;;;;;;;1999.90;999.90;;;14.60;99.90;;;;;;5096932;28;20563;-84
2024/02/14 07:24:23;;;;;;;1999.90;999.90;;;14.60;99.90;;;;;;5113459;28;20011;-78
2024/02/14 07:26:49;;;;;;;1999.90;999.90;;;14.60;99.90;;;;;;5130166;27;20402;-73
2024/02/14 07:29:14;;;;;;;1999.90;999.90;;;14.60;99.90;;;;;;5114752;27;20031;-73
2024/02/14 07:31:41;;;;;;;1999.90;999.90;;;14.70;99.90;;;;;;5112277;27;20092;-75
2024/02/14 07:34:07;;;;;;;1999.90;999.90;;;14.60;99.90;;;;;;5109336;28;20141;-74
2024/02/14 07:36:32;;;;;;;1999.90;999.90;;;14.60;99.90;;;;;;5089489;28;20099;-73
2024/02/14 07:38:58;;;;;;;1999.90;999.90;;;14.60;99.90;;;;;;5106602;28;20031;-74
2024/02/14 07:41:24;;;;;;;1999.90;999.90;;;14.60;99.90;;;;;;5089399;28;20031;-74
2024/02/14 07:43:50;;;;;;;1999.90;999.90;;;14.60;99.90;;;;;;5104872;28;20565;-73
2024/02/14 07:46:19;;;;;;;1999.90;999.90;;;14.60;99.90;;;;;;5088463;28;20056;-74
2024/02/14 07:48:45;;;;;;;1999.90;999.90;;;14.60;99.90;;;;;;5104282;28;20083;-75
2024/02/14 07:51:11;;;;;;;1999.90;999.90;;;14.60;99.90;;;;;;5111540;28;20023;-77
2024/02/14 07:53:36;;;;;;;1999.90;999.90;;;14.60;99.90;;;;;;5106663;28;20043;-75
2024/02/14 07:56:02;;;;;;;1999.90;999.90;;;14.60;99.90;;;;;;5110576;28;20069;-75
2024/02/14 07:58:28;;;;;;;1999.90;999.90;;;14.70;99.90;;;;;;5111477;28;20050;-75
2024/02/14 08:00:53;;;;;;;1999.90;999.90;;;14.80;99.90;;;;;;5113618;28;20416;-75
2024/02/14 08:03:19;;;;;;;1999.90;999.90;;;14.90;99.90;;;;;;5110775;28;20554;-75
2024/02/14 08:05:45;;;;;;;1999.90;999.90;;;15.00;99.90;;;;;;5111463;27;20096;-74
2024/02/14 08:08:10;;;;;;;1999.90;999.90;;;15.10;99.90;;;;;;5114938;27;20054;-76
2024/02/14 08:10:36;;;;;;;1999.90;999.90;;;15.20;99.90;;;;;;5084690;28;20042;-77
2024/02/14 08:13:04;;;;;;;1999.90;999.90;;;15.20;99.90;;;;;;5105941;28;20063;-75
2024/02/14 08:15:30;;;;;;;1999.90;999.90;;;15.30;99.90;;;;;;5097849;28;20135;-75
2024/02/14 08:17:56;;;;;;;1999.90;999.90;;;15.30;99.90;;;;;;5095100;28;20111;-75
2024/02/14 08:20:22;;;;;;;1999.90;999.90;;;15.50;99.90;;;;;;5112992;27;20015;-75
2024/02/14 08:22:49;;;;;;;1999.90;999.90;;;15.80;99.90;;;;;;5114008;27;20027;-76
2024/02/14 08:25:14;;;;;;;1999.90;999.90;;;16.60;99.90;;;;;;5087673;28;20024;-75
2024/02/14 08:27:40;;;;;;;1999.90;999.90;;;17.00;99.90;;;;;;5104118;27;20019;-75
2024/02/14 08:30:06;;;;;;;1999.90;999.90;;;17.60;99.90;;;;;;5103614;28;20035;-78
2024/02/14 08:32:34;;;;;;;1999.90;999.90;;;17.90;99.90;;;;;;5110133;28;20367;-77
2024/02/14 08:35:00;;;;;;;1999.90;999.90;;;18.40;99.90;;;;;;5111769;28;20115;-78
2024/02/14 08:37:26;;;;;;;1999.90;999.90;;;18.30;99.90;;;;;;5088127;28;20043;-78
2024/02/14 08:39:51;;;;;;;1999.90;999.90;;;16.90;99.90;;;;;;5111039;28;20035;-76
2024/02/14 08:42:17;;;;;;;1999.90;999.90;;;15.10;99.90;;;;;;5094817;28;20024;-77
2024/02/14 08:44:42;;;;;;;1999.90;999.90;;;14.20;99.90;;;;;;5109064;28;20027;-79
2024/02/14 08:47:08;;;;;;;1999.90;999.90;;;13.50;99.90;;;;;;5093206;28;20085;-78
2024/02/14 08:49:34;;;;;;;1999.90;999.90;;;13.00;99.90;;;;;;5085380;28;20086;-78
2024/02/14 08:52:00;;;;;;;1999.90;999.90;;;12.90;99.90;;;;;;5100969;28;20035;-77
2024/02/14 08:54:28;;;;;;;1999.90;999.90;;;12.60;99.90;;;;;;5085583;28;20042;-76
2024/02/14 08:56:55;;;;;;;1999.90;999.90;;;12.60;99.90;;;;;;5091992;28;20023;-78
2024/02/14 08:59:21;;;;;;;1999.90;999.90;;;12.70;99.90;;;;;;5086335;28;20035;-77
2024/02/14 09:01:48;;;;;;;1999.90;999.90;;;12.60;99.90;;;;;;5097068;28;20762;-78
2024/02/14 09:04:13;;;;;;;1999.90;999.90;;;12.50;99.90;;;;;;5110215;28;20071;-76
2024/02/14 09:06:40;;;;;;;1999.90;999.90;;;12.40;99.90;;;;;;5088552;28;20124;-77
2024/02/14 09:09:07;;;;;;;1999.90;999.90;;;12.30;99.90;;;;;;5065226;28;20486;-77
2024/02/14 09:11:32;;;;;;;1999.90;999.90;;;12.00;99.90;;;;;;5081944;28;20040;-77
2024/02/14 09:14:04;;;;;;;1999.90;999.90;;;12.10;99.90;;;;;;5085513;28;20028;-77
2024/02/14 09:16:31;;;;;;;1999.90;999.90;;;12.20;99.90;;;;;;5064645;28;20115;-77
2024/02/14 09:18:57;;;;;;;1999.90;999.90;;;12.20;99.90;;;;;;5086350;28;20111;-77
2024/02/14 09:21:23;;;;;;;1999.90;999.90;;;12.10;99.90;;;;;;5082046;28;20971;-74
2024/02/14 09:23:49;;;;;;;1999.90;999.90;;;12.10;99.90;;;;;;5066604;28;20028;-76
2024/02/14 09:26:16;;;;;;;1999.90;999.90;;;12.10;99.90;;;;;;5086028;28;20034;-74
2024/02/14 09:28:45;;;;;;;1999.90;999.90;;;12.20;99.90;;;;;;5064779;28;20427;-76
2024/02/14 09:31:12;;;;;;;1999.90;999.90;;;12.10;99.90;;;;;;5086239;28;20144;-75
2024/02/14 09:33:38;;;;;;;1999.90;999.90;;;12.30;99.90;;;;;;5063699;28;20039;-75
2024/02/14 09:36:04;;;;;;;1999.90;999.90;;;12.30;99.90;;;;;;5109891;28;20040;-76
2024/02/14 09:38:31;;;;;;;1999.90;999.90;;;12.50;99.90;;;;;;5065058;28;20515;-78
2024/02/14 09:41:10;;;;;;;1999.90;999.90;;;12.80;99.90;;;;;;5068796;28;20023;-78
2024/02/14 09:43:40;;;;;;;1999.90;999.90;;;13.50;99.90;;;;;;5085401;28;20034;-78
2024/02/14 09:46:07;;;;;;;1999.90;999.90;;;13.60;99.90;;;;;;5062612;28;20372;-78
2024/02/14 09:48:33;;;;;;;1999.90;999.90;;;13.50;99.90;;;;;;5087719;28;20028;-78
2024/02/14 09:50:59;;;;;;;1999.90;999.90;;;13.30;99.90;;;;;;5088401;28;20078;-78
2024/02/14 09:53:28;;;;;;;1999.90;999.90;;;13.30;99.90;;;;;;5085484;28;20155;-78
2024/02/14 09:55:55;;;;;;;1999.90;999.90;;;13.20;99.90;;;;;;5070121;28;20028;-76
2024/02/14 09:58:21;;;;;;;1999.90;999.90;;;13.10;99.90;;;;;;5088319;28;20096;-78
2024/02/14 10:00:46;;;;;;;1999.90;999.90;;;13.00;99.90;;;;;;5089566;28;20479;-78
2024/02/14 10:03:12;;;;;;;1999.90;999.90;;;12.90;99.90;;;;;;5072318;28;20028;-79
2024/02/14 10:05:38;;;;;;;1999.90;999.90;;;12.90;99.90;;;;;;5090896;28;20060;-78
2024/02/14 10:08:04;;;;;;;1999.90;999.90;;;13.00;99.90;;;;;;5100359;27;20029;-78
2024/02/14 10:10:35;;;;;;;1999.90;999.90;;;13.00;99.90;;;;;;5113066;27;20460;-79
2024/02/14 10:13:03;;;;;;;1999.90;999.90;;;13.00;99.90;;;;;;5117406;27;20047;-80
2024/02/14 10:15:30;;;;;;;1999.90;999.90;;;13.10;99.90;;;;;;5099111;27;20038;-78
2024/02/14 10:17:57;;;;;;;1999.90;999.90;;;13.20;99.90;;;;;;5118113;27;20164;-77
2024/02/14 10:20:23;;;;;;;1999.90;999.90;;;13.30;99.90;;;;;;5113772;27;20419;-79
2024/02/14 10:22:48;;;;;;;1999.90;999.90;;;13.30;99.90;;;;;;5118354;27;20040;-79
2024/02/14 10:25:14;;;;;;;1999.90;999.90;;;13.40;99.90;;;;;;5094775;28;20031;-79
2024/02/14 10:27:41;;;;;;;1999.90;999.90;;;13.40;99.90;;;;;;5106200;27;20038;-78
2024/02/14 10:30:11;;;;;;;1999.90;999.90;;;13.50;99.90;;;;;;5112970;28;20437;-76
2024/02/14 10:32:37;;;;;;;1999.90;999.90;;;13.70;99.90;;;;;;5084754;27;20028;-76
2024/02/14 10:35:11;;;;;;;1999.90;999.90;;;13.70;99.90;;;;;;5110223;28;20028;-77
2024/02/14 10:37:37;;;;;;;1999.90;999.90;;;13.90;99.90;;;;;;5102310;28;20486;-76
2024/02/14 10:40:04;;;;;;;1999.90;999.90;;;13.80;99.90;;;;;;5115949;27;20070;-77
2024/02/14 10:42:33;;;;;;;1999.90;999.90;;;14.00;99.90;;;;;;5128955;27;20119;-77
2024/02/14 10:45:02;;;;;;;1999.90;999.90;;;14.00;99.90;;;;;;5104058;28;20035;-75
2024/02/14 10:47:35;;;;;;;1999.90;999.90;;;14.10;99.90;;;;;;5112874;27;20043;-75
2024/02/14 10:50:05;;;;;;;;;;;14.10;99.90;;;;;;5094412;27;20091;-76
2024/02/14 10:52:35;;;;;;;1999.90;999.90;;;14.40;99.90;;;;;;5097001;28;19912;-77
2024/02/14 10:55:05;;;;;;;1999.90;999.90;;;14.30;99.90;;;;;;5084880;28;20023;-74
2024/02/14 10:57:33;;;;;;;1999.90;999.90;;;14.40;99.90;;;;;;5112574;28;20106;-79
2024/02/14 11:00:04;;;;;;;1999.90;999.90;;;14.50;99.90;;;;;;5108474;27;20040;-75
2024/02/14 11:02:32;;;;;;;1999.90;999.90;;;14.50;99.90;;;;;;5112081;27;20024;-78
2024/02/14 11:04:58;;;;;;;1999.90;999.90;;;14.60;99.90;;;;;;5108838;28;20059;-78
2024/02/14 11:07:28;;;;;;;1999.90;999.90;;;14.80;99.90;;;;;;5101286;28;20506;-76
2024/02/14 11:10:07;;;;;;;1999.90;999.90;;;14.80;99.90;;;;;;5112317;28;20032;-76
2024/02/14 11:12:38;;;;;;;1999.90;999.90;;;14.70;99.90;;;;;;5102363;28;20020;-76
2024/02/14 11:15:30;;;;;;;1999.90;999.90;;;14.80;99.90;;;;;;5098619;28;20036;-76
2024/02/14 11:18:05;;;;;;;1999.90;999.90;;;14.80;99.90;;;;;;5077939;28;20024;-75
2024/02/14 11:20:37;;;;;;;1999.90;999.90;;;15.00;99.90;;;;;;5110093;28;20032;-76
2024/02/14 11:23:13;;;;;;;1999.90;999.90;;;15.30;99.90;;;;;;5099459;28;20108;-74
2024/02/14 11:25:39;;;;;;;1999.90;999.90;;;15.40;99.90;;;;;;5103882;28;20039;-75
2024/02/14 11:28:23;;;;;;;1999.90;999.90;;;15.50;99.90;;;;;;5076967;28;20032;-74
2024/02/14 11:30:49;;;;;;;1999.90;999.90;;;15.60;99.90;;;;;;5104432;28;20106;-73
2024/02/14 11:33:20;;;;;;;1999.90;999.90;;;15.70;99.90;;;;;;5101343;28;20035;-74
2024/02/14 11:35:53;;;;;;;1999.90;999.90;;;15.60;99.90;;;;;;5108614;28;20054;-75
2024/02/14 11:38:19;;;;;;;1999.90;999.90;;;15.90;99.90;;;;;;5102241;28;20027;-74
2024/02/14 11:40:45;;;;;;;1999.90;999.90;;;16.10;99.90;;;;;;5087988;28;20020;-75
2024/02/14 11:43:19;;;;;;;1999.90;999.90;;;16.40;99.90;;;;;;5077488;28;20039;-75
2024/02/14 11:45:49;;;;;;;1999.90;999.90;;;16.50;99.90;;;;;;5082089;28;20027;-75
2024/02/14 11:48:16;;;;;;;1999.90;999.90;;;16.60;99.90;;;;;;5101703;28;20064;-75
2024/02/14 11:50:44;;;;;;;1999.90;999.90;;;16.50;99.90;;;;;;5083910;28;20032;-74
2024/02/14 11:53:11;;;;;;;1999.90;999.90;;;16.50;99.90;;;;;;5111671;28;20296;-75
2024/02/14 11:55:38;;;;;;;1999.90;999.90;;;16.50;99.90;;;;;;5128425;28;20007;-74
2024/02/14 11:58:10;;;;;;;1999.90;999.90;;;16.80;99.90;;;;;;5120329;28;20093;-75